Time,TemperatureF,DewpointF,PressureIn,WindDirection,WindDirectionDegrees,WindSpeedMPH,WindSpeedGustMPH,Humidity,HourlyPrecipIn,Conditions,Clouds,dailyrainin,SoftwareType,DateUTC
2013-01-12 00:02:00,10.0,5.0,-100.00,WNW,290,0.0,5.0,81,-99.99,,,0.00,,2013-01-12 07:02:00,
2013-01-12 00:12:00,9.0,5.0,-100.00,North,-999,0.0,0.0,82,-99.99,,,0.00,,2013-01-12 07:12:00,
2013-01-12 00:22:00,9.0,5.0,-100.00,North,-999,0.0,0.0,82,-99.99,,,0.00,,2013-01-12 07:22:00,
2013-01-12 00:32:00,9.0,5.0,-100.00,North,-999,0.0,0.0,82,-99.99,,,0.00,,2013-01-12 07:32:00,
2013-01-12 00:42:00,9.0,5.0,-100.00,North,-999,0.0,0.0,82,-99.99,,,0.00,,2013-01-12 07:42:00,
2013-01-12 00:52:00,9.0,5.0,-100.00,WSW,250,0.0,3.0,82,-99.99,,,0.00,,2013-01-12 07:52:00,
2013-01-12 01:02:00,9.0,5.0,-100.00,WSW,250,0.0,3.0,82,-99.99,,,0.00,,2013-01-12 08:02:00,
2013-01-12 01:11:00,8.0,4.0,-100.00,SW,235,0.0,4.0,82,-99.99,,,0.00,,2013-01-12 08:11:00,
2013-01-12 01:22:00,8.0,4.0,-100.00,SW,235,0.0,4.0,82,-99.99,,,0.00,,2013-01-12 08:22:00,
2013-01-12 01:32:00,8.0,4.0,-100.00,SW,235,0.0,4.0,82,-99.99,,,0.00,,2013-01-12 08:32:00,
2013-01-12 01:42:00,8.0,4.0,-100.00,SW,235,0.0,4.0,82,-99.99,,,0.00,,2013-01-12 08:42:00,
2013-01-12 01:52:00,8.0,4.0,-100.00,WSW,240,3.0,4.0,82,-99.99,,,0.00,,2013-01-12 08:52:00,
2013-01-12 02:02:00,8.0,4.0,-100.00,WSW,240,3.0,4.0,82,-99.99,,,0.00,,2013-01-12 09:02:00,
2013-01-12 02:12:00,9.0,4.0,-100.00,West,260,0.0,6.0,82,-99.99,,,-99.99,,2013-01-12 09:12:00,
2013-01-12 02:22:00,9.0,4.0,-100.00,West,260,0.0,6.0,82,-99.99,,,-99.99,,2013-01-12 09:22:00,
2013-01-12 02:32:00,9.0,4.0,-100.00,West,260,0.0,6.0,82,-99.99,,,-99.99,,2013-01-12 09:32:00,
2013-01-12 02:42:00,9.0,4.0,-100.00,West,260,0.0,6.0,82,-99.99,,,-99.99,,2013-01-12 09:42:00,
2013-01-12 02:52:00,8.0,4.0,-100.00,North,-999,0.0,0.0,80,-99.99,,,-99.99,,2013-01-12 09:52:00,
2013-01-12 03:02:00,8.0,4.0,-100.00,North,-999,0.0,0.0,80,-99.99,,,-99.99,,2013-01-12 10:02:00,
2013-01-12 03:11:00,8.0,4.0,-100.00,West,260,0.0,4.0,80,-99.99,,,-99.99,,2013-01-12 10:11:00,
2013-01-12 03:22:00,8.0,4.0,-100.00,West,260,0.0,4.0,80,-99.99,,,-99.99,,2013-01-12 10:22:00,
2013-01-12 03:32:00,8.0,4.0,-100.00,West,260,0.0,4.0,80,-99.99,,,-99.99,,2013-01-12 10:32:00,
2013-01-12 03:42:00,8.0,4.0,-100.00,West,260,0.0,4.0,80,-99.99,,,-99.99,,2013-01-12 10:42:00,
2013-01-12 03:52:00,9.0,4.0,-100.00,North,-999,0.0,0.0,80,-99.99,,,-99.99,,2013-01-12 10:52:00,
2013-01-12 04:02:00,9.0,4.0,-100.00,North,-999,0.0,0.0,80,-99.99,,,-99.99,,2013-01-12 11:02:00,
2013-01-12 04:12:00,9.0,4.0,-100.00,West,260,2.0,4.0,81,-99.99,,,-99.99,,2013-01-12 11:12:00,
2013-01-12 04:22:00,9.0,4.0,-100.00,West,260,2.0,4.0,81,-99.99,,,-99.99,,2013-01-12 11:22:00,
2013-01-12 04:32:00,9.0,4.0,-100.00,West,260,2.0,4.0,81,-99.99,,,-99.99,,2013-01-12 11:32:00,
2013-01-12 04:42:00,9.0,4.0,-100.00,West,260,2.0,4.0,81,-99.99,,,-99.99,,2013-01-12 11:42:00,
2013-01-12 04:53:00,9.0,4.0,-100.00,WSW,245,2.0,4.0,82,-99.99,,,-99.99,,2013-01-12 11:53:00,
2013-01-12 05:02:00,9.0,4.0,-100.00,WSW,245,2.0,4.0,82,-99.99,,,-99.99,,2013-01-12 12:02:00,
2013-01-12 05:12:00,9.0,5.0,-100.00,WSW,240,2.0,4.0,83,-99.99,,,-99.99,,2013-01-12 12:12:00,
2013-01-12 05:22:00,9.0,5.0,-100.00,WSW,240,2.0,4.0,83,-99.99,,,-99.99,,2013-01-12 12:22:00,
2013-01-12 05:32:00,9.0,5.0,-100.00,WSW,240,2.0,4.0,83,-99.99,,,-99.99,,2013-01-12 12:32:00,
2013-01-12 05:42:00,9.0,5.0,-100.00,WSW,240,2.0,4.0,83,-99.99,,,-99.99,,2013-01-12 12:42:00,
2013-01-12 05:52:00,9.0,5.0,-100.00,West,265,2.0,4.0,83,-99.99,,,0.00,,2013-01-12 12:52:00,
2013-01-12 06:02:00,9.0,5.0,-100.00,West,265,2.0,4.0,83,-99.99,,,0.00,,2013-01-12 13:02:00,
2013-01-12 06:12:00,8.0,4.0,-100.00,North,-999,0.0,0.0,84,-99.99,,,0.00,,2013-01-12 13:12:00,
2013-01-12 06:22:00,8.0,4.0,-100.00,North,-999,0.0,0.0,84,-99.99,,,0.00,,2013-01-12 13:22:00,
2013-01-12 06:32:00,8.0,4.0,-100.00,North,-999,0.0,0.0,84,-99.99,,,0.00,,2013-01-12 13:32:00,
2013-01-12 06:42:00,8.0,4.0,-100.00,North,-999,0.0,0.0,84,-99.99,,,0.00,,2013-01-12 13:42:00,
2013-01-12 06:52:00,6.0,2.0,-100.00,North,-999,0.0,0.0,82,-99.99,,,0.00,,2013-01-12 13:52:00,
2013-01-12 07:02:00,6.0,2.0,-100.00,North,-999,0.0,0.0,82,-99.99,,,0.00,,2013-01-12 14:02:00,
2013-01-12 07:12:00,5.0,1.0,-100.00,North,-999,0.0,0.0,83,-99.99,,,0.00,,2013-01-12 14:12:00,
2013-01-12 07:22:00,5.0,1.0,-100.00,North,-999,0.0,0.0,83,-99.99,,,0.00,,2013-01-12 14:22:00,
2013-01-12 07:32:00,5.0,1.0,-100.00,North,-999,0.0,0.0,83,-99.99,,,0.00,,2013-01-12 14:32:00,
2013-01-12 07:43:00,5.0,1.0,-100.00,North,-999,0.0,0.0,83,-99.99,,,0.00,,2013-01-12 14:43:00,
2013-01-12 07:53:00,4.0,1.0,-100.00,North,-999,0.0,0.0,84,-99.99,,,0.00,,2013-01-12 14:53:00,
2013-01-12 08:03:00,4.0,1.0,-100.00,North,-999,0.0,0.0,84,-99.99,,,0.00,,2013-01-12 15:03:00,
2013-01-12 08:12:00,2.0,-1.0,-100.00,North,-999,0.0,0.0,84,-99.99,,,0.00,,2013-01-12 15:12:00,
2013-01-12 08:22:00,2.0,-1.0,-100.00,North,-999,0.0,0.0,84,-99.99,,,0.00,,2013-01-12 15:22:00,
2013-01-12 08:33:00,2.0,-1.0,-100.00,North,-999,0.0,0.0,84,-99.99,,,0.00,,2013-01-12 15:33:00,
2013-01-12 08:42:00,2.0,-1.0,-100.00,North,-999,0.0,0.0,84,-99.99,,,0.00,,2013-01-12 15:42:00,
2013-01-12 08:52:00,2.0,-2.0,-100.00,North,-999,0.0,0.0,84,-99.99,,,0.00,,2013-01-12 15:52:00,
2013-01-12 09:03:00,2.0,-2.0,-100.00,North,-999,0.0,0.0,84,-99.99,,,0.00,,2013-01-12 16:03:00,
2013-01-12 09:12:00,5.0,1.0,-100.00,North,-999,0.0,0.0,84,-99.99,,,0.00,,2013-01-12 16:12:00,
2013-01-12 09:23:00,5.0,1.0,-100.00,North,-999,0.0,0.0,84,-99.99,,,0.00,,2013-01-12 16:23:00,
2013-01-12 09:33:00,5.0,1.0,-100.00,North,-999,0.0,0.0,84,-99.99,,,0.00,,2013-01-12 16:33:00,
2013-01-12 09:42:00,5.0,1.0,-100.00,North,-999,0.0,0.0,84,-99.99,,,0.00,,2013-01-12 16:42:00,
2013-01-12 09:52:00,5.0,2.0,-100.00,North,-999,0.0,0.0,84,-99.99,,,0.00,,2013-01-12 16:52:00,
2013-01-12 10:02:00,5.0,2.0,-100.00,North,-999,0.0,0.0,84,-99.99,,,0.00,,2013-01-12 17:02:00,
2013-01-12 10:12:00,5.0,2.0,-100.00,North,-999,0.0,0.0,84,-99.99,,,0.00,,2013-01-12 17:12:00,
2013-01-12 13:12:00,16.0,5.0,-100.00,North,-999,0.0,0.0,61,-99.99,,,0.00,,2013-01-12 20:12:00,
2013-01-12 13:22:00,16.0,5.0,-100.00,North,-999,0.0,0.0,61,-99.99,,,0.00,,2013-01-12 20:22:00,
2013-01-12 13:32:00,16.0,5.0,-100.00,North,-999,0.0,0.0,61,-99.99,,,0.00,,2013-01-12 20:32:00,
2013-01-12 13:42:00,16.0,5.0,-100.00,North,-999,0.0,0.0,61,-99.99,,,0.00,,2013-01-12 20:42:00,
2013-01-12 13:53:00,16.0,5.0,-100.00,North,-999,0.0,0.0,62,-99.99,,,0.00,,2013-01-12 20:53:00,
2013-01-12 14:02:00,16.0,5.0,-100.00,North,-999,0.0,0.0,62,-99.99,,,0.00,,2013-01-12 21:02:00,
2013-01-12 14:12:00,17.0,5.0,-100.00,West,265,13.0,21.0,58,-99.99,,,0.00,,2013-01-12 21:12:00,
2013-01-12 14:22:00,17.0,5.0,-100.00,West,265,13.0,21.0,58,-99.99,,,0.00,,2013-01-12 21:22:00,
2013-01-12 14:32:00,17.0,5.0,-100.00,West,265,13.0,21.0,58,-99.99,,,0.00,,2013-01-12 21:32:00,
2013-01-12 14:42:00,17.0,5.0,-100.00,West,265,13.0,21.0,58,-99.99,,,0.00,,2013-01-12 21:42:00,
2013-01-12 14:53:00,18.0,5.0,-100.00,West,270,13.0,22.0,56,-99.99,,,0.00,,2013-01-12 21:53:00,
2013-01-12 15:02:00,18.0,5.0,-100.00,West,270,13.0,22.0,56,-99.99,,,0.00,,2013-01-12 22:02:00,
2013-01-12 15:12:00,16.0,4.0,-100.00,WSW,255,15.0,20.0,56,-99.99,,,0.00,,2013-01-12 22:12:00,
2013-01-12 15:22:00,16.0,4.0,-100.00,WSW,255,15.0,20.0,56,-99.99,,,0.00,,2013-01-12 22:22:00,
2013-01-12 15:32:00,16.0,4.0,-100.00,WSW,255,15.0,20.0,56,-99.99,,,0.00,,2013-01-12 22:32:00,
2013-01-12 15:42:00,16.0,4.0,-100.00,WSW,255,15.0,20.0,56,-99.99,,,0.00,,2013-01-12 22:42:00,
2013-01-12 15:52:00,17.0,4.0,-100.00,West,265,10.0,18.0,56,-99.99,,,0.00,,2013-01-12 22:52:00,
2013-01-12 16:02:00,17.0,4.0,-100.00,West,265,10.0,18.0,56,-99.99,,,0.00,,2013-01-12 23:02:00,
2013-01-12 16:12:00,17.0,4.0,-100.00,West,265,10.0,18.0,56,-99.99,,,0.00,,2013-01-12 23:12:00,
2013-01-12 16:52:00,15.0,4.0,-100.00,West,270,11.0,18.0,59,-99.99,,,0.00,,2013-01-12 23:52:00,
2013-01-12 17:02:00,15.0,4.0,-100.00,West,270,11.0,18.0,59,-99.99,,,0.00,,2013-01-13 00:02:00,
2013-01-12 17:12:00,14.0,3.0,-100.00,West,280,9.0,16.0,60,-99.99,,,0.00,,2013-01-13 00:12:00,
2013-01-12 17:22:00,14.0,3.0,-100.00,West,280,9.0,16.0,60,-99.99,,,0.00,,2013-01-13 00:22:00,
2013-01-12 17:32:00,14.0,3.0,-100.00,West,280,9.0,16.0,60,-99.99,,,0.00,,2013-01-13 00:32:00,
2013-01-12 17:42:00,14.0,3.0,-100.00,West,280,9.0,16.0,60,-99.99,,,0.00,,2013-01-13 00:42:00,
2013-01-12 17:52:00,14.0,4.0,-100.00,West,260,9.0,19.0,63,-99.99,,,0.00,,2013-01-13 00:52:00,
2013-01-12 18:02:00,14.0,4.0,-100.00,West,260,9.0,19.0,63,-99.99,,,0.00,,2013-01-13 01:02:00,
2013-01-12 18:12:00,14.0,4.0,-100.00,West,280,1.0,11.0,65,-99.99,,,0.00,,2013-01-13 01:12:00,
2013-01-12 18:22:00,14.0,4.0,-100.00,West,280,1.0,11.0,65,-99.99,,,0.00,,2013-01-13 01:22:00,
2013-01-12 18:32:00,14.0,4.0,-100.00,West,280,1.0,11.0,65,-99.99,,,0.00,,2013-01-13 01:32:00,
2013-01-12 18:42:00,14.0,4.0,-100.00,West,280,1.0,11.0,65,-99.99,,,0.00,,2013-01-13 01:42:00,
2013-01-12 18:52:00,14.0,6.0,-100.00,WNW,285,0.0,1.0,71,-99.99,,,0.00,,2013-01-13 01:52:00,
2013-01-12 19:02:00,14.0,6.0,-100.00,WNW,285,0.0,1.0,71,-99.99,,,0.00,,2013-01-13 02:02:00,
2013-01-12 19:12:00,13.0,7.0,-100.00,West,275,0.0,4.0,75,-99.99,,,0.00,,2013-01-13 02:12:00,
2013-01-12 19:22:00,13.0,7.0,-100.00,West,275,0.0,4.0,75,-99.99,,,0.00,,2013-01-13 02:22:00,
2013-01-12 19:32:00,13.0,7.0,-100.00,West,275,0.0,4.0,75,-99.99,,,0.00,,2013-01-13 02:32:00,
2013-01-12 19:42:00,13.0,7.0,-100.00,West,275,0.0,4.0,75,-99.99,,,0.00,,2013-01-13 02:42:00,
2013-01-12 19:52:00,13.0,7.0,-100.00,West,260,0.0,1.0,75,-99.99,,,0.00,,2013-01-13 02:52:00,
2013-01-12 20:02:00,13.0,7.0,-100.00,West,260,0.0,1.0,75,-99.99,,,0.00,,2013-01-13 03:02:00,
2013-01-12 20:12:00,13.0,7.0,-100.00,West,265,0.0,4.0,78,-99.99,,,0.00,,2013-01-13 03:12:00,
2013-01-12 20:22:00,13.0,7.0,-100.00,West,265,0.0,4.0,78,-99.99,,,0.00,,2013-01-13 03:22:00,
2013-01-12 20:32:00,13.0,7.0,-100.00,West,265,0.0,4.0,78,-99.99,,,0.00,,2013-01-13 03:32:00,
2013-01-12 20:42:00,13.0,7.0,-100.00,West,265,0.0,4.0,78,-99.99,,,0.00,,2013-01-13 03:42:00,
2013-01-12 20:52:00,12.0,7.0,-100.00,West,280,0.0,4.0,80,-99.99,,,0.00,,2013-01-13 03:52:00,
2013-01-12 21:02:00,12.0,7.0,-100.00,West,280,0.0,4.0,80,-99.99,,,0.00,,2013-01-13 04:02:00,
2013-01-12 21:12:00,11.0,7.0,-100.00,North,-999,0.0,0.0,81,-99.99,,,0.00,,2013-01-13 04:12:00,
2013-01-12 21:22:00,11.0,7.0,-100.00,North,-999,0.0,0.0,81,-99.99,,,0.00,,2013-01-13 04:22:00,
2013-01-12 21:32:00,11.0,7.0,-100.00,North,-999,0.0,0.0,81,-99.99,,,0.00,,2013-01-13 04:32:00,
2013-01-12 21:42:00,11.0,7.0,-100.00,North,-999,0.0,0.0,81,-99.99,,,0.00,,2013-01-13 04:42:00,
2013-01-12 21:52:00,11.0,6.0,-100.00,West,270,0.0,1.0,82,-99.99,,,0.00,,2013-01-13 04:52:00,
2013-01-12 22:03:00,11.0,6.0,-100.00,West,270,0.0,1.0,82,-99.99,,,0.00,,2013-01-13 05:03:00,
2013-01-12 22:12:00,10.0,5.0,-100.00,West,280,0.0,1.0,82,-99.99,,,0.00,,2013-01-13 05:12:00,
2013-01-12 22:22:00,10.0,5.0,-100.00,West,280,0.0,1.0,82,-99.99,,,0.00,,2013-01-13 05:22:00,
2013-01-12 22:32:00,10.0,5.0,-100.00,West,280,0.0,1.0,82,-99.99,,,0.00,,2013-01-13 05:32:00,
2013-01-12 22:42:00,10.0,5.0,-100.00,West,280,0.0,1.0,82,-99.99,,,0.00,,2013-01-13 05:42:00,
2013-01-12 22:52:00,10.0,5.0,-100.00,West,280,0.0,6.0,82,-99.99,,,-99.99,,2013-01-13 05:52:00,
2013-01-12 23:02:00,10.0,5.0,-100.00,West,280,0.0,6.0,82,-99.99,,,-99.99,,2013-01-13 06:02:00,
2013-01-12 23:12:00,9.0,5.0,-100.00,West,275,0.0,6.0,82,-99.99,,,0.00,,2013-01-13 06:12:00,
2013-01-12 23:22:00,9.0,5.0,-100.00,West,275,0.0,6.0,82,-99.99,,,0.00,,2013-01-13 06:22:00,
2013-01-12 23:32:00,9.0,5.0,-100.00,West,275,0.0,6.0,82,-99.99,,,0.00,,2013-01-13 06:32:00,
2013-01-12 23:42:00,9.0,5.0,-100.00,West,275,0.0,6.0,82,-99.99,,,0.00,,2013-01-13 06:42:00,
2013-01-12 23:52:00,9.0,5.0,-100.00,West,265,0.0,3.0,81,-99.99,,,0.00,,2013-01-13 06:52:00,